ADDS METAR Data INFO
IDs: Format: Raw Decoded Include TAF

Data at: 1154 UTC 25 Jun 2018

KHWD 251054Z 28008KT 10SM OVC013 17/13 A2992 RMK AO2 SLP142 T01670128
No TAF found for KHWD

KRDD 251053Z AUTO 14005KT 10SM CLR 21/14 A2983 RMK AO2 SLP094 T02110144

KRDD 251132Z 2512/2612 16008KT P6SM SKC
  FM252100 19010G15KT P6SM SKC
  FM260300 VRB05KT P6SM SKC


KRTS 251135Z AUTO 36004KT 10SM SCT085 15/05 A3008 RMK AO2
No TAF found for KRTS